createdAt,value
2023-01-02T00:02:22.819Z,3.85
2023-01-02T00:06:07.518Z,2.97
2023-01-02T00:09:49.210Z,3.05
2023-01-02T00:13:30.962Z,3.15
2023-01-02T00:17:12.739Z,3.30
2023-01-02T00:20:54.520Z,2.45
2023-01-02T00:24:36.310Z,3.10
2023-01-02T00:28:18.026Z,3.92
2023-01-02T00:32:00.128Z,2.30
2023-01-02T00:35:42.009Z,2.00
2023-01-02T00:39:24.547Z,1.77
2023-01-02T00:43:06.412Z,2.50
2023-01-02T00:46:48.385Z,1.95
2023-01-02T00:50:30.247Z,1.52
2023-01-02T00:54:12.007Z,1.63
2023-01-02T00:57:53.687Z,1.83
2023-01-02T01:01:35.725Z,2.38
2023-01-02T01:05:17.596Z,1.90
2023-01-02T01:09:00.060Z,1.60
2023-01-02T01:12:42.184Z,1.73
2023-01-02T01:16:24.328Z,1.63
2023-01-02T01:20:07.235Z,2.40
2023-01-02T01:23:53.230Z,2.20
2023-01-02T01:27:34.971Z,1.80
2023-01-02T01:31:17.296Z,2.30
2023-01-02T01:34:59.036Z,2.25
2023-01-02T01:38:41.346Z,1.75
2023-01-02T01:42:23.060Z,1.70
2023-01-02T01:46:11.146Z,1.98
2023-01-02T01:53:50.065Z,1.67
2023-01-02T01:57:43.367Z,2.33
2023-01-02T02:01:25.362Z,1.52
2023-01-02T02:05:09.236Z,2.10
2023-01-02T02:09:17.226Z,2.42
2023-01-02T02:12:59.334Z,2.30
2023-01-02T02:16:56.030Z,2.28
2023-01-02T02:20:44.106Z,1.67
2023-01-02T02:28:58.203Z,1.73
2023-01-02T02:32:45.813Z,1.90
2023-01-02T02:36:40.503Z,1.52
2023-01-02T02:40:41.012Z,2.97
2023-01-02T02:44:31.661Z,1.90
2023-01-02T02:48:36.149Z,1.42
2023-01-02T02:52:30.716Z,1.80
2023-01-02T02:56:15.002Z,1.92
2023-01-02T02:59:56.936Z,2.13
2023-01-02T03:03:38.714Z,1.65
2023-01-02T03:07:39.653Z,1.95
2023-01-02T03:11:23.266Z,1.65
2023-01-02T03:15:21.132Z,1.58
2023-01-02T03:19:11.124Z,1.90
2023-01-02T03:22:57.495Z,2.30
2023-01-02T03:26:43.783Z,2.00
2023-01-02T03:30:25.617Z,1.70
2023-01-02T03:34:13.758Z,2.08
2023-01-02T03:41:48.559Z,1.80
2023-01-02T03:45:36.594Z,1.88
2023-01-02T03:53:12.009Z,1.73
2023-01-02T03:57:04.497Z,1.95
2023-01-02T04:00:58.225Z,1.75
2023-01-02T04:04:51.885Z,1.70
2023-01-02T04:08:45.002Z,1.67
2023-01-02T04:12:29.748Z,2.08
2023-01-02T04:16:16.852Z,1.75
2023-01-02T04:20:11.916Z,1.97
2023-01-02T04:24:09.892Z,2.63
2023-01-02T04:28:00.979Z,2.15
2023-01-02T04:31:44.698Z,1.80
2023-01-02T04:35:27.352Z,2.28
2023-01-02T04:39:09.791Z,1.88
2023-01-02T04:42:51.789Z,2.10
2023-01-02T04:46:33.626Z,1.80
2023-01-02T04:50:15.898Z,2.03
2023-01-02T04:53:57.882Z,2.28
2023-01-02T04:57:39.679Z,1.77
2023-01-02T05:01:22.331Z,1.90
2023-01-02T05:05:05.264Z,2.22
2023-01-02T05:08:47.096Z,2.58
2023-01-02T05:12:28.916Z,2.25
2023-01-02T05:16:11.810Z,2.40
2023-01-02T05:19:53.800Z,2.85
2023-01-02T05:23:51.025Z,2.80
2023-01-02T05:27:32.751Z,3.10
2023-01-02T05:31:14.631Z,3.83
2023-01-02T05:34:56.550Z,3.53
2023-01-02T05:38:39.985Z,4.50
2023-01-02T05:42:22.152Z,4.60
2023-01-02T05:46:07.924Z,4.97
2023-01-02T05:49:49.878Z,5.55
2023-01-02T05:53:32.191Z,5.45
2023-01-02T05:57:14.106Z,5.80
2023-01-02T06:00:55.968Z,6.32
2023-01-02T06:04:37.798Z,6.57
2023-01-02T06:08:19.605Z,6.28
2023-01-02T06:12:01.380Z,6.20
2023-01-02T06:15:43.220Z,5.47
2023-01-02T06:19:25.252Z,5.93
2023-01-02T06:23:06.967Z,5.80
2023-01-02T06:26:48.727Z,6.72
2023-01-02T06:30:30.482Z,5.90
2023-01-02T06:34:12.302Z,5.40
2023-01-02T06:37:54.063Z,4.82
2023-01-02T06:41:35.826Z,4.82
2023-01-02T06:45:17.766Z,4.95
2023-01-02T06:48:59.509Z,4.40
2023-01-02T06:52:41.242Z,3.90
2023-01-02T06:56:23.385Z,3.70
2023-01-02T07:00:05.692Z,3.63
2023-01-02T07:03:48.186Z,3.80
2023-01-02T07:07:29.905Z,3.38
2023-01-02T07:11:17.123Z,4.00
2023-01-02T07:14:58.900Z,3.73
2023-01-02T07:18:41.346Z,3.83
2023-01-02T07:22:23.155Z,4.43
2023-01-02T07:26:06.491Z,3.92
2023-01-02T07:29:48.244Z,4.55
2023-01-02T07:33:31.186Z,4.25
2023-01-02T07:37:12.974Z,4.90
2023-01-02T07:40:55.130Z,4.97
2023-01-02T07:44:36.836Z,4.50
2023-01-02T07:48:19.212Z,5.05
2023-01-02T07:52:01.013Z,5.20
2023-01-02T07:55:42.800Z,5.45
2023-01-02T07:59:24.644Z,6.03
2023-01-02T08:03:06.348Z,6.28
2023-01-02T08:06:48.092Z,5.45
2023-01-02T08:10:29.831Z,5.93
2023-01-02T08:14:11.574Z,5.80
2023-01-02T08:17:53.361Z,6.05
2023-01-02T08:21:35.069Z,5.38
2023-01-02T08:25:17.394Z,5.45
2023-01-02T08:28:59.868Z,5.75
2023-01-02T08:32:43.142Z,5.32
2023-01-02T08:36:24.943Z,5.47
2023-01-02T08:40:07.058Z,4.90
2023-01-02T08:43:48.758Z,5.55
2023-01-02T08:47:30.510Z,5.25
2023-01-02T08:51:12.254Z,5.40
2023-01-02T08:54:54.183Z,4.57
2023-01-02T08:58:35.885Z,5.60
2023-01-02T09:02:18.002Z,4.78
2023-01-02T09:05:59.893Z,5.20
2023-01-02T09:09:41.690Z,4.95
2023-01-02T09:13:23.401Z,4.80
2023-01-02T09:17:05.243Z,5.00
2023-01-02T09:20:46.953Z,5.43
2023-01-02T09:24:29.052Z,4.72
2023-01-02T09:28:10.779Z,4.78
2023-01-02T09:31:53.093Z,4.28
2023-01-02T09:35:35.739Z,4.10
2023-01-02T09:39:17.528Z,4.05
2023-01-02T09:43:00.048Z,3.83
2023-01-02T09:46:51.208Z,3.45
2023-01-02T09:50:32.987Z,3.60
2023-01-02T09:54:29.898Z,3.30
2023-01-02T09:58:33.595Z,3.45
2023-01-02T10:02:36.193Z,3.50
2023-01-02T10:06:31.808Z,3.60
2023-01-02T10:10:45.293Z,3.42
2023-01-02T10:14:38.775Z,3.10
2023-01-02T10:18:32.376Z,3.33
2023-01-02T10:22:18.634Z,2.80
2023-01-02T10:26:12.987Z,3.10
2023-01-02T10:30:07.740Z,3.10
2023-01-02T10:34:03.477Z,2.90
2023-01-02T10:37:45.220Z,2.60
2023-01-02T10:41:28.304Z,2.30
2023-01-02T10:45:16.191Z,2.22
2023-01-02T10:48:58.660Z,2.22
2023-01-02T10:52:51.880Z,2.28
2023-01-02T10:56:36.872Z,2.10
2023-01-02T11:00:24.151Z,1.92
2023-01-02T11:04:12.919Z,1.80
2023-01-02T11:07:55.620Z,2.00
2023-01-02T11:11:37.670Z,2.00
2023-01-02T11:15:34.469Z,1.80
2023-01-02T11:19:29.174Z,1.30
2023-01-02T11:23:14.633Z,1.40
2023-01-02T11:27:00.465Z,1.40
2023-01-02T11:30:46.414Z,1.20
2023-01-02T11:34:36.905Z,1.20
2023-01-02T11:38:29.512Z,1.15
2023-01-02T11:42:45.413Z,1.10
2023-01-02T11:46:34.642Z,1.02
2023-01-02T11:50:26.006Z,1.30
2023-01-02T11:54:14.415Z,0.95
2023-01-02T11:58:15.831Z,1.00
2023-01-02T12:02:11.897Z,0.90
2023-01-02T12:06:14.088Z,1.10
2023-01-02T12:10:18.032Z,0.75
2023-01-02T12:14:05.762Z,1.00
2023-01-02T12:17:56.665Z,0.90
2023-01-02T12:22:02.655Z,1.48
2023-01-02T12:25:48.035Z,1.60
2023-01-02T12:29:51.315Z,1.60
2023-01-02T12:33:57.250Z,2.00
2023-01-02T12:37:56.629Z,1.88
2023-01-02T12:42:01.009Z,2.10
2023-01-02T12:45:49.749Z,1.77
2023-01-02T12:49:53.337Z,2.67
2023-01-02T12:53:47.074Z,2.08
2023-01-02T12:58:04.103Z,1.20
2023-01-02T13:02:08.789Z,1.70
2023-01-02T13:06:43.497Z,1.92
2023-01-02T13:10:31.038Z,1.70
2023-01-02T13:14:20.078Z,1.80
2023-01-02T13:18:25.518Z,2.13
2023-01-02T13:22:21.509Z,2.60
2023-01-02T13:26:09.923Z,2.10
2023-01-02T13:29:53.240Z,2.10
2023-01-02T13:33:41.314Z,2.70
2023-01-02T13:41:06.675Z,2.25
2023-01-02T13:44:54.862Z,1.90
2023-01-02T13:48:46.618Z,2.00
2023-01-02T13:52:28.440Z,1.92
2023-01-02T13:56:27.897Z,2.40
2023-01-02T14:00:15.682Z,1.88
2023-01-02T14:04:22.706Z,2.38
2023-01-02T14:08:32.257Z,1.85
2023-01-02T14:12:14.081Z,1.70
2023-01-02T14:16:23.462Z,2.00
2023-01-02T14:20:42.218Z,2.03
2023-01-02T14:24:30.578Z,2.38
2023-01-02T14:28:22.431Z,2.72
2023-01-02T14:32:07.744Z,1.98
2023-01-02T14:35:52.506Z,2.85
2023-01-02T14:39:36.928Z,1.77
2023-01-02T14:43:38.266Z,2.95
2023-01-02T14:47:36.765Z,2.50
2023-01-02T14:55:24.656Z,2.00
2023-01-02T14:59:13.951Z,2.42
2023-01-02T15:03:22.290Z,2.25
2023-01-02T15:07:25.395Z,2.50
2023-01-02T15:11:40.726Z,2.67
2023-01-02T15:15:28.077Z,4.82
2023-01-02T15:19:20.028Z,2.45
2023-01-02T15:23:01.963Z,2.22
2023-01-02T15:26:44.856Z,2.70
2023-01-02T15:30:34.539Z,2.85
2023-01-02T15:34:24.737Z,2.88
2023-01-02T15:38:22.412Z,2.72
2023-01-02T15:42:11.928Z,6.20
2023-01-02T15:45:54.326Z,4.72
2023-01-02T15:49:40.199Z,3.85
2023-01-02T15:53:29.689Z,3.70
2023-01-02T15:57:14.016Z,8.55
2023-01-02T16:01:16.552Z,4.28
2023-01-02T16:05:16.252Z,6.10
2023-01-02T16:09:01.910Z,4.47
2023-01-02T16:12:43.658Z,8.43
2023-01-02T16:16:34.721Z,9.45
2023-01-02T16:20:19.835Z,5.30
2023-01-02T16:24:01.719Z,4.25
2023-01-02T16:27:58.694Z,6.95
2023-01-02T16:31:58.677Z,15.07
2023-01-02T16:35:58.184Z,8.35
2023-01-02T16:39:44.725Z,10.32
2023-01-02T16:43:27.725Z,21.95
2023-01-02T16:47:10.653Z,17.55
2023-01-02T16:50:55.110Z,10.88
2023-01-02T16:54:36.812Z,27.52
2023-01-02T16:58:19.612Z,18.88
2023-01-02T17:02:01.634Z,25.00
2023-01-02T17:06:01.759Z,26.45
2023-01-02T17:09:44.309Z,12.65
2023-01-02T17:13:26.719Z,12.75
2023-01-02T17:17:08.551Z,14.25
2023-01-02T17:20:50.631Z,8.98
2023-01-02T17:24:32.358Z,9.82
2023-01-02T17:28:14.647Z,14.05
2023-01-02T17:31:56.636Z,20.92
2023-01-02T17:35:38.658Z,16.20
2023-01-02T17:39:20.373Z,17.10
2023-01-02T17:43:02.136Z,28.35
2023-01-02T17:47:23.398Z,41.90
2023-01-02T17:50:49.902Z,15.68
2023-01-02T17:54:32.320Z,15.60
2023-01-02T17:58:14.082Z,23.88
2023-01-02T18:01:56.083Z,12.98
2023-01-02T18:05:38.086Z,14.63
2023-01-02T18:09:20.038Z,18.80
2023-01-02T18:13:02.786Z,18.40
2023-01-02T18:16:46.017Z,22.50
2023-01-02T18:20:27.862Z,17.15
2023-01-02T18:24:35.763Z,13.48
2023-01-02T18:28:22.392Z,10.47
2023-01-02T18:32:16.540Z,15.65
2023-01-02T18:36:02.514Z,14.75
2023-01-02T18:39:44.298Z,21.42
2023-01-02T18:43:33.751Z,33.58
2023-01-02T18:47:28.659Z,35.95
2023-01-02T18:51:17.374Z,20.77
2023-01-02T18:55:12.189Z,20.25
2023-01-02T18:59:16.538Z,19.85
2023-01-02T19:03:07.225Z,18.60
2023-01-02T19:06:51.726Z,17.63
2023-01-02T19:10:37.483Z,19.38
2023-01-02T19:14:23.471Z,18.15
2023-01-02T19:18:30.012Z,21.88
2023-01-02T19:22:23.789Z,15.38
2023-01-02T19:26:44.373Z,18.15
2023-01-02T19:30:29.589Z,18.38
2023-01-02T19:34:41.764Z,18.70
2023-01-02T19:38:29.376Z,15.38
2023-01-02T19:42:22.034Z,19.13
2023-01-02T19:46:04.820Z,19.98
2023-01-02T19:49:46.699Z,19.90
2023-01-02T19:53:28.482Z,18.27
2023-01-02T19:57:11.710Z,23.95
2023-01-02T20:00:53.528Z,22.50
2023-01-02T20:04:35.263Z,19.00
2023-01-02T20:08:16.997Z,19.30
2023-01-02T20:12:17.299Z,24.10
2023-01-02T20:15:59.154Z,23.75
2023-01-02T20:19:41.074Z,25.40
2023-01-02T20:23:22.832Z,20.58
2023-01-02T20:27:05.371Z,20.08
2023-01-02T20:30:47.916Z,18.58
2023-01-02T20:34:29.695Z,20.10
2023-01-02T20:38:11.475Z,18.73
2023-01-02T20:41:53.222Z,20.35
2023-01-02T20:45:34.917Z,20.85
2023-01-02T20:49:17.118Z,21.00
2023-01-02T20:52:58.869Z,20.55
2023-01-02T20:56:40.609Z,22.52
2023-01-02T21:00:22.397Z,19.90
2023-01-02T21:04:04.547Z,17.23
2023-01-02T21:07:46.476Z,18.88
2023-01-02T21:11:29.319Z,21.20
2023-01-02T21:15:31.260Z,18.45
2023-01-02T21:19:12.981Z,39.88
2023-01-02T21:22:55.595Z,18.48
2023-01-02T21:26:37.436Z,19.33
2023-01-02T21:30:19.334Z,14.60
2023-01-02T21:34:01.148Z,13.65
2023-01-02T21:37:42.873Z,15.05
2023-01-02T21:41:43.249Z,13.88
2023-01-02T21:45:25.388Z,15.77
2023-01-02T21:49:07.249Z,18.58
2023-01-02T21:52:49.257Z,21.67
2023-01-02T21:56:33.213Z,19.58
2023-01-02T22:00:28.314Z,23.42
2023-01-02T22:04:10.150Z,23.33
2023-01-02T22:07:51.934Z,27.13
2023-01-02T22:11:52.292Z,29.98
2023-01-02T22:15:34.061Z,34.95
2023-01-02T22:19:16.277Z,44.10
2023-01-02T22:22:58.626Z,39.08
2023-01-02T22:26:41.920Z,34.33
2023-01-02T22:30:31.504Z,29.98
2023-01-02T22:34:18.129Z,26.30
2023-01-02T22:37:59.905Z,27.52
2023-01-02T22:41:48.365Z,22.38
2023-01-02T22:45:42.844Z,23.83
2023-01-02T22:49:29.054Z,21.48
2023-01-02T22:53:29.288Z,20.10
2023-01-02T22:57:12.354Z,17.60
2023-01-02T23:01:03.767Z,17.83
2023-01-02T23:04:45.694Z,16.58
2023-01-02T23:08:27.537Z,13.02
2023-01-02T23:12:09.510Z,11.60
2023-01-02T23:16:10.036Z,11.45
2023-01-02T23:19:51.835Z,11.63
2023-01-02T23:23:33.514Z,11.07
2023-01-02T23:27:15.437Z,9.40
2023-01-02T23:30:57.394Z,8.98
2023-01-02T23:34:39.187Z,8.85
2023-01-02T23:38:20.898Z,9.23
2023-01-02T23:42:02.774Z,9.10
2023-01-02T23:45:44.583Z,12.32
2023-01-02T23:49:26.453Z,11.70
2023-01-02T23:53:08.198Z,11.75
2023-01-02T23:56:51.449Z,11.27
